Grantley Adams, Barbados

6:55 PM AST on August 27, 2015 (GMT -0400)
Grantley Adams International | | Change Station
CLOSE
Current Station
Airport
Location: Grantley Adams,
Elevation: 184 ft
Nearby Weather Stations

Elev 184 ft 13.07 °N, 59.49 °W | Updated 55 minutes ago

Mostly Cloudy
Mostly Cloudy
84 °F
Feels Like 94 °F
N
15
Wind Variable Wind from East

Today
High -- | Low -- °F
--% Chance of Precip.
Yesterday
High -- | Low -- °F
Precip. -- in
5:46 AM 6:12 PM
Waxing Gibbous, 95% visible
Pressure 29.92 in
Visibility 6.2 miles
Clouds Few 1200 ft
Scattered Clouds 1600 ft
Mostly Cloudy 28000 ft
Heat Index 94 °F
Dew Point 77 °F
Humidity 79%
Rainfall 0.00 in
Snow Depth Not available.
UV 0 out of 12
Pollen Not available.
Air Quality Not available.
Flu Activity Not available.
METAR TBPB 272200Z 10013KT 9999 FEW012CB SCT016 BKN280 29/25 Q1013 NOSIG
Pressure 29.92 in
Visibility 6.2 miles
Clouds Few 1200 ft
Scattered Clouds 1600 ft
Mostly Cloudy 28000 ft
Heat Index 94 °F
Dew Point 77 °F
Humidity 79%
Rainfall 0.00 in
Snow Depth Not available.
UV 0 out of 12
Pollen Not available.
Air Quality Not available.
Flu Activity Not available.
METAR TBPB 272200Z 10013KT 9999 FEW012CB SCT016 BKN280 29/25 Q1013 NOSIG

10-Day Weather Forecast

×

Almanac

Astronomy

Aug. 27, 2015 Rise Set
Actual Time
Civil Twilight
Nautical Twilight
Astronomical Twilight
Moon
Length of Visible Light
Length of Day
Tomorrow will be .
, % of the Moon is Illuminated

Today's Extremes

Country Highs Country Lows

Community

WunderPhotos

Upload Photos

1,850,252 photos uploaded!

WunderBlogs® & News

Nearby

Air Quality

  Air Quality AQ Index Pollutant
Not available.

Snow Depth

Station Depth Elevation

Earthquake Activity

City Distance Mag. Time & Date
Minimum magnitude displayed is 2.5.

Coastal Water Temperatures

Place Temperature

Stations

Nearby Weather Stations

Station Location Temp. Windchill Dew Point Humidity Wind Precip. Elev Updated Type